Time;durP1;ratioP1;P1;durP2;ratioP2;P2;SDS_P1;SDS_P2;PMS_P1;PMS_P2;Temp;Humidity;BMP_temperature;BMP_pressure;BME280_temperature;BME280_humidity;BME280_pressure;Samples;Min_cycle;Max_cycle;Signal;HPM_P1;HPM_P2
2021/09/12 00:02:01;;;;;;;12.43;5.40;;;;;;;;;;6161074;28;20058;-81
2021/09/12 00:05:05;;;;;;;8.52;5.57;;;;;;;;;;6146371;28;20412;-82
2021/09/12 00:08:07;;;;;;;7.63;5.75;;;;;;;;;;6148970;28;20134;-81
2021/09/12 00:11:08;;;;;;;9.63;7.10;;;;;;;;;;6148767;28;20050;-82
2021/09/12 00:14:10;;;;;;;11.63;7.03;;;;;;;;;;6147342;28;20043;-81
2021/09/12 00:17:11;;;;;;;8.82;7.00;;;;;;;;;;6132081;28;20047;-82
2021/09/12 00:20:13;;;;;;;9.85;7.55;;;;;;;;;;6147876;28;20054;-82
2021/09/12 00:23:15;;;;;;;11.63;7.15;;;;;;;;;;6154359;28;20039;-82
2021/09/12 00:26:17;;;;;;;12.68;7.30;;;;;;;;;;6173534;28;20123;-82
2021/09/12 00:29:20;;;;;;;14.63;8.65;;;;;;;;;;6173961;28;20051;-82
2021/09/12 00:32:21;;;;;;;14.18;8.43;;;;;;;;;;6148828;28;20065;-82
2021/09/12 00:35:23;;;;;;;14.85;7.95;;;;;;;;;;6149948;28;20130;-82
2021/09/12 00:38:25;;;;;;;12.55;8.30;;;;;;;;;;6148855;28;20129;-82
2021/09/12 00:41:32;;;;;;;22.92;10.75;;;;;;;;;;6154450;28;20650;-81
2021/09/12 00:44:34;;;;;;;18.70;9.98;;;;;;;;;;6168695;28;20043;-81
2021/09/12 00:47:35;;;;;;;12.40;7.95;;;;;;;;;;6181837;28;20034;-81
2021/09/12 00:50:37;;;;;;;17.95;11.05;;;;;;;;;;6197065;28;20474;-82
2021/09/12 00:53:40;;;;;;;15.77;9.70;;;;;;;;;;6182038;28;20106;-79
2021/09/12 00:56:42;;;;;;;13.43;8.70;;;;;;;;;;6148945;28;20074;-82
2021/09/12 00:59:46;;;;;;;14.02;7.60;;;;;;;;;;6148768;28;20525;-82
2021/09/12 01:02:47;;;;;;;13.55;8.00;;;;;;;;;;6146941;28;20515;-81
2021/09/12 01:05:50;;;;;;;12.57;8.18;;;;;;;;;;6148031;28;20051;-81
2021/09/12 01:08:52;;;;;;;13.60;8.48;;;;;;;;;;6125476;28;20058;-82
2021/09/12 01:11:57;;;;;;;16.05;9.43;;;;;;;;;;6168769;28;20067;-82
2021/09/12 01:14:59;;;;;;;13.68;8.50;;;;;;;;;;6166476;28;20047;-82
2021/09/12 01:18:01;;;;;;;12.02;8.75;;;;;;;;;;6129339;28;20043;-79
2021/09/12 01:21:02;;;;;;;12.70;8.07;;;;;;;;;;6148070;28;20480;-81
2021/09/12 01:24:08;;;;;;;9.57;7.18;;;;;;;;;;6147071;28;20489;-82
2021/09/12 01:27:10;;;;;;;13.35;7.85;;;;;;;;;;6146386;28;20078;-82
2021/09/12 01:30:12;;;;;;;10.70;7.05;;;;;;;;;;6168191;28;20043;-81
2021/09/12 01:33:13;;;;;;;9.57;7.25;;;;;;;;;;6168630;28;20189;-82
2021/09/12 01:36:15;;;;;;;10.55;6.80;;;;;;;;;;6170116;28;20043;-82
2021/09/12 01:39:17;;;;;;;13.07;7.70;;;;;;;;;;6167663;28;20053;-80
2021/09/12 01:42:19;;;;;;;11.35;7.65;;;;;;;;;;6170739;28;20051;-83
2021/09/12 01:45:20;;;;;;;11.30;8.00;;;;;;;;;;6169571;28;20163;-82
2021/09/12 01:48:22;;;;;;;11.82;7.97;;;;;;;;;;6169180;28;20049;-81
2021/09/12 01:51:23;;;;;;;12.95;7.45;;;;;;;;;;6170145;28;20118;-81
2021/09/12 01:54:25;;;;;;;10.45;7.30;;;;;;;;;;6161122;28;20115;-82
2021/09/12 01:57:27;;;;;;;12.38;7.53;;;;;;;;;;6170333;28;20038;-81
2021/09/12 02:00:29;;;;;;;12.33;7.80;;;;;;;;;;6158697;28;20122;-82
2021/09/12 02:03:31;;;;;;;9.55;6.85;;;;;;;;;;6144470;28;20453;-80
2021/09/12 02:06:33;;;;;;;10.52;7.55;;;;;;;;;;6145789;28;20114;-82
2021/09/12 02:09:35;;;;;;;10.68;6.72;;;;;;;;;;6146313;28;20086;-81
2021/09/12 02:12:36;;;;;;;10.13;6.65;;;;;;;;;;6166877;28;20057;-81
2021/09/12 02:15:38;;;;;;;12.65;7.68;;;;;;;;;;6175014;28;20613;-81
2021/09/12 02:18:40;;;;;;;10.68;7.63;;;;;;;;;;6147064;28;20047;-82
2021/09/12 02:21:41;;;;;;;17.65;9.52;;;;;;;;;;6161549;28;20039;-81
2021/09/12 02:24:43;;;;;;;16.17;10.00;;;;;;;;;;6158074;28;20068;-81
2021/09/12 02:27:44;;;;;;;12.55;7.90;;;;;;;;;;6167143;28;20047;-82
2021/09/12 02:30:46;;;;;;;12.02;7.65;;;;;;;;;;6158566;28;20214;-81
2021/09/12 02:33:48;;;;;;;11.85;7.35;;;;;;;;;;6154949;28;20046;-82
2021/09/12 02:36:49;;;;;;;12.75;8.02;;;;;;;;;;6153119;28;20050;-82
2021/09/12 02:39:51;;;;;;;11.82;8.13;;;;;;;;;;6163174;28;20055;-81
2021/09/12 02:42:53;;;;;;;12.32;7.40;;;;;;;;;;6156702;28;20258;-81
2021/09/12 02:45:54;;;;;;;12.45;7.13;;;;;;;;;;6163583;28;20046;-82
2021/09/12 02:48:56;;;;;;;13.88;7.68;;;;;;;;;;6173897;28;20058;-82
2021/09/12 02:51:58;;;;;;;11.90;7.63;;;;;;;;;;6175206;28;20050;-82
2021/09/12 02:54:59;;;;;;;11.75;7.60;;;;;;;;;;6159297;28;20043;-81
2021/09/12 02:58:01;;;;;;;13.73;8.38;;;;;;;;;;6133852;28;20054;-81
2021/09/12 03:01:03;;;;;;;21.88;11.05;;;;;;;;;;6158282;28;20162;-82
2021/09/12 03:04:05;;;;;;;21.05;12.20;;;;;;;;;;6148983;28;20519;-82
2021/09/12 03:07:06;;;;;;;16.73;9.48;;;;;;;;;;6165806;28;20126;-82
2021/09/12 03:10:08;;;;;;;14.48;8.48;;;;;;;;;;6150912;28;20054;-81
2021/09/12 03:13:10;;;;;;;14.88;9.13;;;;;;;;;;6148543;28;20039;-82
2021/09/12 03:16:11;;;;;;;15.55;8.90;;;;;;;;;;6151650;28;20063;-82
2021/09/12 03:19:13;;;;;;;16.98;8.10;;;;;;;;;;6150452;28;20120;-80
2021/09/12 03:22:15;;;;;;;11.60;8.10;;;;;;;;;;6148724;28;20059;-82
2021/09/12 03:25:16;;;;;;;11.60;7.32;;;;;;;;;;6149165;28;20062;-81
2021/09/12 03:28:18;;;;;;;13.85;8.77;;;;;;;;;;6149234;28;20043;-83
2021/09/12 03:31:19;;;;;;;16.33;9.20;;;;;;;;;;6153917;28;20070;-82
2021/09/12 03:34:21;;;;;;;17.23;9.80;;;;;;;;;;6170430;28;20072;-83
2021/09/12 03:37:23;;;;;;;14.68;9.75;;;;;;;;;;6155944;28;20046;-81
2021/09/12 03:40:25;;;;;;;19.33;10.43;;;;;;;;;;6168475;28;20078;-82
2021/09/12 03:43:26;;;;;;;15.15;8.85;;;;;;;;;;6169836;28;20047;-80
2021/09/12 03:46:28;;;;;;;18.88;8.20;;;;;;;;;;6178539;28;20050;-82
2021/09/12 03:49:30;;;;;;;14.55;8.23;;;;;;;;;;6198521;28;20062;-82
2021/09/12 03:52:31;;;;;;;15.65;8.63;;;;;;;;;;6196736;28;20184;-81
2021/09/12 03:55:33;;;;;;;17.20;8.98;;;;;;;;;;6184025;28;20155;-82
2021/09/12 03:58:34;;;;;;;15.77;8.65;;;;;;;;;;6171328;28;20046;-82
2021/09/12 04:01:36;;;;;;;12.02;8.43;;;;;;;;;;6154822;28;20214;-81
2021/09/12 04:04:38;;;;;;;10.77;7.10;;;;;;;;;;6149571;28;20604;-79
2021/09/12 04:07:40;;;;;;;9.43;6.22;;;;;;;;;;6161435;28;20043;-81
2021/09/12 04:10:41;;;;;;;10.45;6.18;;;;;;;;;;6147444;28;20047;-80
2021/09/12 04:13:43;;;;;;;9.02;5.57;;;;;;;;;;6144802;28;20043;-80
2021/09/12 04:16:45;;;;;;;9.48;6.10;;;;;;;;;;6145059;28;20051;-81
2021/09/12 04:19:46;;;;;;;8.63;5.85;;;;;;;;;;6146170;28;20083;-81
2021/09/12 04:22:48;;;;;;;6.88;5.15;;;;;;;;;;6147059;28;20083;-81
2021/09/12 04:25:50;;;;;;;8.23;5.72;;;;;;;;;;6160053;28;20058;-80
2021/09/12 04:28:52;;;;;;;7.72;5.25;;;;;;;;;;6160601;28;20051;-79
2021/09/12 04:31:53;;;;;;;9.55;6.00;;;;;;;;;;6160071;28;20051;-79
2021/09/12 04:34:55;;;;;;;9.90;6.35;;;;;;;;;;6167732;28;20043;-79
2021/09/12 04:37:56;;;;;;;8.98;6.13;;;;;;;;;;6169394;28;20053;-79
2021/09/12 04:41:00;;;;;;;12.38;6.80;;;;;;;;;;6145769;28;20620;-81
2021/09/12 04:44:02;;;;;;;8.90;6.07;;;;;;;;;;6159999;28;20523;-80
2021/09/12 04:47:03;;;;;;;11.75;6.13;;;;;;;;;;6156509;28;20052;-80
2021/09/12 04:50:05;;;;;;;8.88;5.78;;;;;;;;;;6193897;28;20692;-80
2021/09/12 04:53:07;;;;;;;7.30;5.53;;;;;;;;;;6194445;28;20045;-81
2021/09/12 04:56:08;;;;;;;8.05;5.57;;;;;;;;;;6154923;28;20071;-80
2021/09/12 04:59:10;;;;;;;10.18;6.18;;;;;;;;;;6147711;28;20040;-81
2021/09/12 05:02:11;;;;;;;11.93;5.85;;;;;;;;;;6147162;28;20126;-81
2021/09/12 05:05:14;;;;;;;8.45;5.78;;;;;;;;;;6147421;28;20083;-81
2021/09/12 05:08:15;;;;;;;8.52;5.78;;;;;;;;;;6148555;28;20061;-80
2021/09/12 05:11:17;;;;;;;8.23;5.43;;;;;;;;;;6148718;28;20103;-80
2021/09/12 05:14:19;;;;;;;10.27;5.88;;;;;;;;;;6148730;28;20075;-80
2021/09/12 05:17:20;;;;;;;8.25;5.30;;;;;;;;;;6148069;28;20130;-81
2021/09/12 05:20:22;;;;;;;8.25;5.45;;;;;;;;;;6164153;28;20102;-80
2021/09/12 05:23:24;;;;;;;10.85;5.97;;;;;;;;;;6149049;28;20057;-81
2021/09/12 05:26:26;;;;;;;9.52;5.55;;;;;;;;;;6146713;28;20043;-81
2021/09/12 05:29:27;;;;;;;7.50;5.53;;;;;;;;;;6149201;28;20051;-81
2021/09/12 05:32:29;;;;;;;10.10;5.07;;;;;;;;;;6171061;28;20724;-82
2021/09/12 05:35:30;;;;;;;9.15;5.55;;;;;;;;;;6172133;28;20068;-80
2021/09/12 05:38:32;;;;;;;8.82;5.97;;;;;;;;;;6170439;28;20220;-80
2021/09/12 05:41:34;;;;;;;13.63;7.20;;;;;;;;;;6150968;28;20186;-79
2021/09/12 05:44:36;;;;;;;9.45;6.15;;;;;;;;;;6147465;28;20130;-81
2021/09/12 05:47:38;;;;;;;9.48;5.20;;;;;;;;;;6188208;28;20038;-81
2021/09/12 05:50:40;;;;;;;10.57;5.80;;;;;;;;;;6195011;28;20051;-80
2021/09/12 05:53:41;;;;;;;8.30;5.47;;;;;;;;;;6182133;28;20801;-81
2021/09/12 05:56:43;;;;;;;13.73;6.00;;;;;;;;;;6163663;28;20038;-80
2021/09/12 05:59:45;;;;;;;8.27;6.18;;;;;;;;;;6152363;28;20043;-79
2021/09/12 06:02:46;;;;;;;9.52;6.57;;;;;;;;;;6171376;28;20057;-80
2021/09/12 06:05:49;;;;;;;9.57;6.20;;;;;;;;;;6173980;28;20119;-81
2021/09/12 06:08:51;;;;;;;9.25;5.65;;;;;;;;;;6175270;28;20051;-82
2021/09/12 06:11:53;;;;;;;10.18;5.70;;;;;;;;;;6172945;28;20050;-81
2021/09/12 06:14:54;;;;;;;11.00;6.50;;;;;;;;;;6170070;28;20142;-81
2021/09/12 06:17:56;;;;;;;13.65;8.32;;;;;;;;;;6170671;28;20130;-80
2021/09/12 06:20:57;;;;;;;14.10;8.63;;;;;;;;;;6177085;28;20130;-81
2021/09/12 06:23:59;;;;;;;14.43;7.45;;;;;;;;;;6173266;28;20043;-81
2021/09/12 06:27:01;;;;;;;12.30;7.88;;;;;;;;;;6149930;28;20065;-81
2021/09/12 06:30:04;;;;;;;12.90;7.85;;;;;;;;;;6184787;28;20053;-81
2021/09/12 06:33:06;;;;;;;15.85;10.27;;;;;;;;;;6178290;28;20750;-82
2021/09/12 06:36:08;;;;;;;12.00;7.68;;;;;;;;;;6176622;28;20507;-82
2021/09/12 06:39:09;;;;;;;10.68;6.20;;;;;;;;;;6176118;28;20129;-82
2021/09/12 06:42:11;;;;;;;13.00;6.95;;;;;;;;;;6182899;28;20051;-80
2021/09/12 06:45:18;;;;;;;11.00;6.68;;;;;;;;;;6163105;28;20043;-80
2021/09/12 06:48:20;;;;;;;12.52;6.85;;;;;;;;;;6167148;28;20110;-81
2021/09/12 06:51:21;;;;;;;11.30;6.57;;;;;;;;;;6174446;28;20484;-81
2021/09/12 06:54:23;;;;;;;10.23;7.55;;;;;;;;;;6159527;28;20111;-82
2021/09/12 06:57:24;;;;;;;15.25;7.88;;;;;;;;;;6150189;28;20573;-81
2021/09/12 07:00:26;;;;;;;10.40;7.47;;;;;;;;;;6126013;28;20071;-81
2021/09/12 07:03:28;;;;;;;10.07;7.25;;;;;;;;;;6126932;29;20047;-81
2021/09/12 07:06:30;;;;;;;12.85;6.85;;;;;;;;;;6150333;28;20485;-81
2021/09/12 07:09:33;;;;;;;11.95;7.30;;;;;;;;;;6153692;28;20118;-80
2021/09/12 07:12:34;;;;;;;10.05;7.03;;;;;;;;;;6177289;28;20434;-81
2021/09/12 07:15:37;;;;;;;10.15;7.07;;;;;;;;;;6168542;28;20074;-81
2021/09/12 07:18:38;;;;;;;11.85;7.25;;;;;;;;;;6166795;28;20051;-80
2021/09/12 07:21:40;;;;;;;9.40;6.68;;;;;;;;;;6139486;28;20111;-80
2021/09/12 07:24:42;;;;;;;10.70;6.93;;;;;;;;;;6145512;28;20043;-80
2021/09/12 07:27:43;;;;;;;11.88;7.15;;;;;;;;;;6165603;28;20042;-80
2021/09/12 07:30:45;;;;;;;12.73;7.53;;;;;;;;;;6156727;28;20534;-80
2021/09/12 07:33:46;;;;;;;10.02;7.05;;;;;;;;;;6173937;28;20544;-81
2021/09/12 07:36:48;;;;;;;13.52;8.50;;;;;;;;;;6191625;28;20042;-80
2021/09/12 07:39:49;;;;;;;11.93;7.65;;;;;;;;;;6172269;28;20051;-81
2021/09/12 07:42:51;;;;;;;14.80;8.40;;;;;;;;;;6142111;28;20051;-80
2021/09/12 07:45:53;;;;;;;15.38;8.98;;;;;;;;;;6151383;28;20050;-80
2021/09/12 07:48:55;;;;;;;17.90;9.45;;;;;;;;;;6193162;28;20416;-81
2021/09/12 07:52:01;;;;;;;11.82;7.93;;;;;;;;;;6193318;28;20054;-81
2021/09/12 07:55:03;;;;;;;13.50;8.55;;;;;;;;;;6168407;28;20126;-82
2021/09/12 07:58:05;;;;;;;16.47;10.40;;;;;;;;;;6143601;28;20478;-81
2021/09/12 08:01:07;;;;;;;16.05;9.60;;;;;;;;;;6143246;28;20470;-81
2021/09/12 08:04:09;;;;;;;16.37;10.23;;;;;;;;;;6153423;28;20054;-80
2021/09/12 08:07:11;;;;;;;15.32;9.05;;;;;;;;;;6146505;28;20051;-80
2021/09/12 08:10:12;;;;;;;16.92;9.40;;;;;;;;;;6156108;28;20043;-82
2021/09/12 08:13:14;;;;;;;15.80;9.80;;;;;;;;;;6173506;28;20121;-82
2021/09/12 08:16:16;;;;;;;17.65;10.80;;;;;;;;;;6171013;28;20043;-83
2021/09/12 08:19:17;;;;;;;19.08;11.50;;;;;;;;;;6171909;28;20070;-82
2021/09/12 08:22:19;;;;;;;16.60;10.48;;;;;;;;;;6155957;28;20035;-82
2021/09/12 08:25:21;;;;;;;17.17;10.30;;;;;;;;;;6162757;28;20043;-82
2021/09/12 08:28:22;;;;;;;16.33;9.98;;;;;;;;;;6148761;28;20131;-82
2021/09/12 08:31:24;;;;;;;16.35;9.98;;;;;;;;;;6157709;28;20134;-83
2021/09/12 08:34:27;;;;;;;15.88;9.60;;;;;;;;;;6172374;28;20098;-82
2021/09/12 08:37:29;;;;;;;16.38;10.02;;;;;;;;;;6156607;28;20050;-83
2021/09/12 08:40:31;;;;;;;14.82;9.93;;;;;;;;;;6147250;28;20050;-82
2021/09/12 08:43:33;;;;;;;12.40;8.30;;;;;;;;;;6146718;28;20420;-82
2021/09/12 08:46:34;;;;;;;16.60;9.70;;;;;;;;;;6179957;28;20046;-81
2021/09/12 08:49:36;;;;;;;14.50;9.13;;;;;;;;;;6198397;28;20125;-83
2021/09/12 08:52:38;;;;;;;10.10;7.20;;;;;;;;;;6188678;28;20138;-83
2021/09/12 08:55:39;;;;;;;9.90;6.35;;;;;;;;;;6173378;28;20121;-83
2021/09/12 08:58:41;;;;;;;7.95;5.55;;;;;;;;;;6172277;28;20034;-83
2021/09/12 09:01:43;;;;;;;9.25;5.65;;;;;;;;;;6169760;28;20145;-82
2021/09/12 09:04:45;;;;;;;9.23;5.50;;;;;;;;;;6172206;28;20042;-81
2021/09/12 09:07:46;;;;;;;7.93;5.70;;;;;;;;;;6169603;28;20050;-81
2021/09/12 09:10:52;;;;;;;8.70;6.25;;;;;;;;;;6171052;28;20066;-82
2021/09/12 09:13:54;;;;;;;7.05;5.18;;;;;;;;;;6171566;28;20043;-82
2021/09/12 09:16:56;;;;;;;7.83;5.17;;;;;;;;;;6162370;28;20043;-82
2021/09/12 09:19:57;;;;;;;10.60;5.90;;;;;;;;;;6148026;28;20044;-82
2021/09/12 09:23:04;;;;;;;8.85;5.60;;;;;;;;;;6154412;28;20054;-83
2021/09/12 09:26:20;;;;;;;11.30;5.53;;;;;;;;;;6171991;28;20045;-82
2021/09/12 09:29:30;;;;;;;8.18;4.78;;;;;;;;;;6173512;28;20133;-83
2021/09/12 09:32:32;;;;;;;7.20;4.70;;;;;;;;;;6146384;28;20047;-82
2021/09/12 09:35:33;;;;;;;10.50;5.20;;;;;;;;;;6171687;28;20125;-82
2021/09/12 09:38:37;;;;;;;5.45;4.22;;;;;;;;;;6166265;28;20065;-81
2021/09/12 09:41:39;;;;;;;7.80;3.85;;;;;;;;;;6146627;28;20121;-82
2021/09/12 09:44:56;;;;;;;4.57;3.35;;;;;;;;;;6159524;28;20055;-81
2021/09/12 09:48:00;;;;;;;5.38;3.78;;;;;;;;;;6165916;28;20043;-82
2021/09/12 09:51:03;;;;;;;4.57;3.53;;;;;;;;;;6170066;28;20512;-82
2021/09/12 09:54:05;;;;;;;4.10;2.60;;;;;;;;;;6169054;28;20122;-81
2021/09/12 09:57:08;;;;;;;3.15;2.78;;;;;;;;;;6145222;28;20050;-81
2021/09/12 10:00:10;;;;;;;3.42;2.35;;;;;;;;;;6128236;28;20106;-80
2021/09/12 10:03:17;;;;;;;3.35;2.67;;;;;;;;;;6158103;28;20057;-81
2021/09/12 10:06:21;;;;;;;3.75;2.80;;;;;;;;;;6167383;28;20039;-81
2021/09/12 10:09:23;;;;;;;4.18;2.63;;;;;;;;;;6165144;28;20129;-80
2021/09/12 10:12:24;;;;;;;4.65;3.10;;;;;;;;;;6168184;28;20047;-80
2021/09/12 10:15:33;;;;;;;3.22;2.40;;;;;;;;;;6160221;28;20123;-80
2021/09/12 10:18:39;;;;;;;4.45;2.88;;;;;;;;;;6160620;28;20147;-81
2021/09/12 10:21:49;;;;;;;2.60;2.40;;;;;;;;;;6143784;28;20054;-81
2021/09/12 10:25:00;;;;;;;6.22;2.50;;;;;;;;;;6156068;28;20070;-80
2021/09/12 10:28:06;;;;;;;3.13;2.55;;;;;;;;;;6170213;28;20058;-82
2021/09/12 10:31:26;;;;;;;2.47;2.08;;;;;;;;;;6153408;28;20567;-81
2021/09/12 10:34:27;;;;;;;3.53;1.90;;;;;;;;;;6158925;28;20047;-81
2021/09/12 10:37:30;;;;;;;2.55;2.00;;;;;;;;;;6148543;28;20178;-82
2021/09/12 10:40:58;;;;;;;;;;;;;;;;;;6144424;28;20493;-81
2021/09/12 10:44:14;;;;;;;3.10;2.08;;;;;;;;;;6135872;28;20011;-78
2021/09/12 10:47:19;;;;;;;4.03;2.10;;;;;;;;;;6166632;28;20059;-80
2021/09/12 10:50:40;;;;;;;5.60;3.40;;;;;;;;;;6180236;28;20039;-80
2021/09/12 10:53:45;;;;;;;2.50;1.98;;;;;;;;;;6166530;28;20047;-80
2021/09/12 10:57:06;;;;;;;3.25;1.90;;;;;;;;;;6186687;28;20053;-79
2021/09/12 11:00:11;;;;;;;3.60;2.03;;;;;;;;;;6170135;28;20072;-80
2021/09/12 11:03:16;;;;;;;3.17;1.83;;;;;;;;;;6179016;28;20047;-80
2021/09/12 11:06:20;;;;;;;3.67;1.88;;;;;;;;;;6180168;28;20102;-78
2021/09/12 11:09:25;;;;;;;4.80;2.75;;;;;;;;;;6168006;28;20070;-79
2021/09/12 11:12:27;;;;;;;3.63;2.53;;;;;;;;;;6174096;28;20046;-79
2021/09/12 11:15:29;;;;;;;3.30;1.80;;;;;;;;;;6188926;28;20049;-80
2021/09/12 11:18:58;;;;;;;4.65;1.65;;;;;;;;;;6177915;28;20415;-80
2021/09/12 11:22:00;;;;;;;3.47;2.30;;;;;;;;;;6176715;28;20048;-79
2021/09/12 11:25:03;;;;;;;2.60;1.60;;;;;;;;;;6186763;28;20057;-80
2021/09/12 11:28:07;;;;;;;14.38;3.47;;;;;;;;;;6199210;28;20052;-79
2021/09/12 11:31:08;;;;;;;3.10;2.20;;;;;;;;;;6171915;28;20101;-80
2021/09/12 11:34:12;;;;;;;1.92;1.50;;;;;;;;;;6151041;28;20102;-80
2021/09/12 11:37:15;;;;;;;7.40;2.50;;;;;;;;;;6149410;28;20050;-79
2021/09/12 11:40:23;;;;;;;1.90;1.65;;;;;;;;;;6152085;28;20110;-79
2021/09/12 11:43:25;;;;;;;1.52;1.42;;;;;;;;;;6150714;28;20423;-79
2021/09/12 11:46:29;;;;;;;2.20;1.60;;;;;;;;;;6159940;28;20043;-79
2021/09/12 11:49:31;;;;;;;3.78;1.77;;;;;;;;;;6174437;28;20097;-80
2021/09/12 11:52:38;;;;;;;2.00;1.60;;;;;;;;;;6174493;28;20039;-80
2021/09/12 11:55:40;;;;;;;1.83;1.40;;;;;;;;;;6174610;28;20056;-80
2021/09/12 11:58:42;;;;;;;1.52;1.42;;;;;;;;;;6173246;28;20385;-80
2021/09/12 12:01:51;;;;;;;2.35;1.70;;;;;;;;;;6154398;28;20097;-81
2021/09/12 12:04:57;;;;;;;2.28;1.40;;;;;;;;;;6162168;28;20162;-80
2021/09/12 12:08:04;;;;;;;2.05;1.35;;;;;;;;;;6148614;28;20075;-80
2021/09/12 12:11:07;;;;;;;2.15;1.48;;;;;;;;;;6147971;28;20051;-81
2021/09/12 12:14:23;;;;;;;2.17;1.40;;;;;;;;;;6122750;29;20054;-80
2021/09/12 12:17:26;;;;;;;2.05;1.27;;;;;;;;;;6148960;28;20046;-80
2021/09/12 12:20:34;;;;;;;1.67;1.58;;;;;;;;;;6164449;28;20047;-79
2021/09/12 12:23:35;;;;;;;2.17;1.60;;;;;;;;;;6150368;28;20108;-80
2021/09/12 12:26:54;;;;;;;1.63;1.50;;;;;;;;;;6150255;28;20062;-79
2021/09/12 12:30:01;;;;;;;1.65;1.50;;;;;;;;;;6148572;28;20528;-80
2021/09/12 12:33:02;;;;;;;1.85;1.50;;;;;;;;;;6153979;28;20077;-80
2021/09/12 12:36:07;;;;;;;1.95;1.40;;;;;;;;;;6173535;28;20043;-80
2021/09/12 12:39:14;;;;;;;2.50;1.50;;;;;;;;;;6159107;28;20047;-79
2021/09/12 12:42:16;;;;;;;1.83;1.50;;;;;;;;;;6150294;28;20039;-79
2021/09/12 12:45:22;;;;;;;2.33;1.52;;;;;;;;;;6156721;28;20042;-79
2021/09/12 12:48:23;;;;;;;1.42;1.30;;;;;;;;;;6196712;28;20042;-80
2021/09/12 12:51:25;;;;;;;1.90;1.70;;;;;;;;;;6197550;28;20133;-79
2021/09/12 12:54:30;;;;;;;1.80;1.42;;;;;;;;;;6185735;28;20046;-79
2021/09/12 12:57:34;;;;;;;3.45;1.52;;;;;;;;;;6148925;28;20070;-80
2021/09/12 13:00:36;;;;;;;2.40;1.80;;;;;;;;;;6149071;28;20050;-79
2021/09/12 13:03:39;;;;;;;2.40;1.40;;;;;;;;;;6147499;28;20060;-80
2021/09/12 13:06:41;;;;;;;1.60;1.50;;;;;;;;;;6147788;28;20047;-80
2021/09/12 13:09:43;;;;;;;2.00;1.40;;;;;;;;;;6149170;28;20086;-80
2021/09/12 13:12:44;;;;;;;3.40;1.40;;;;;;;;;;6156493;28;20479;-79
2021/09/12 13:15:48;;;;;;;1.97;1.47;;;;;;;;;;6185842;28;20042;-80
2021/09/12 13:18:50;;;;;;;2.80;1.50;;;;;;;;;;6195970;28;20552;-80
2021/09/12 13:21:52;;;;;;;1.80;1.70;;;;;;;;;;6198521;28;20129;-79
2021/09/12 13:24:54;;;;;;;2.35;1.50;;;;;;;;;;6180389;28;20142;-80
2021/09/12 13:27:56;;;;;;;1.67;1.57;;;;;;;;;;6150331;28;20057;-79
2021/09/12 13:30:58;;;;;;;2.90;1.90;;;;;;;;;;6146839;28;20051;-79
2021/09/12 13:34:01;;;;;;;2.13;1.80;;;;;;;;;;6160233;28;20050;-80
2021/09/12 13:37:02;;;;;;;3.25;1.50;;;;;;;;;;6171340;28;20472;-79
2021/09/12 13:40:05;;;;;;;2.45;1.50;;;;;;;;;;6163766;28;20073;-78
2021/09/12 13:43:07;;;;;;;2.00;1.35;;;;;;;;;;6148295;28;20063;-80
2021/09/12 13:46:09;;;;;;;2.72;1.65;;;;;;;;;;6168453;28;20097;-79
2021/09/12 13:49:11;;;;;;;1.90;1.58;;;;;;;;;;6171470;28;20039;-80
2021/09/12 13:52:13;;;;;;;2.28;1.67;;;;;;;;;;6168623;28;20047;-79
2021/09/12 13:55:14;;;;;;;1.50;1.38;;;;;;;;;;6170886;28;20038;-79
2021/09/12 13:58:16;;;;;;;1.65;1.40;;;;;;;;;;6169110;28;20047;-79
2021/09/12 14:01:18;;;;;;;1.50;1.40;;;;;;;;;;6162851;28;20047;-79
2021/09/12 14:04:20;;;;;;;1.97;1.27;;;;;;;;;;6124787;28;20055;-80
2021/09/12 14:07:28;;;;;;;1.50;1.40;;;;;;;;;;6123841;29;20043;-80
2021/09/12 14:10:29;;;;;;;2.03;1.33;;;;;;;;;;6131151;28;20479;-80
2021/09/12 14:13:31;;;;;;;2.47;1.30;;;;;;;;;;6147096;28;20128;-81
2021/09/12 14:16:32;;;;;;;1.42;1.33;;;;;;;;;;6146043;28;20043;-80
2021/09/12 14:19:34;;;;;;;1.30;1.20;;;;;;;;;;6150214;28;20170;-82
2021/09/12 14:22:36;;;;;;;1.20;1.10;;;;;;;;;;6157025;28;20043;-79
2021/09/12 14:25:37;;;;;;;2.20;1.20;;;;;;;;;;6145149;28;20047;-79
2021/09/12 14:28:39;;;;;;;1.50;1.10;;;;;;;;;;6168016;28;20059;-80
2021/09/12 14:31:40;;;;;;;2.28;1.00;;;;;;;;;;6145301;28;20126;-79
2021/09/12 14:34:42;;;;;;;1.50;1.30;;;;;;;;;;6139308;28;20043;-80
2021/09/12 14:37:44;;;;;;;2.00;1.10;;;;;;;;;;6162650;28;20547;-80
2021/09/12 14:40:45;;;;;;;1.30;1.20;;;;;;;;;;6147477;28;20549;-80
2021/09/12 14:43:47;;;;;;;2.13;1.33;;;;;;;;;;6152948;28;20049;-81
2021/09/12 14:46:48;;;;;;;2.38;1.10;;;;;;;;;;6140886;28;20518;-81
2021/09/12 14:49:50;;;;;;;1.77;1.30;;;;;;;;;;6183541;28;20118;-82
2021/09/12 14:52:52;;;;;;;2.85;1.48;;;;;;;;;;6191980;28;20054;-81
2021/09/12 14:55:54;;;;;;;2.35;1.30;;;;;;;;;;6158327;28;20055;-80
2021/09/12 14:58:58;;;;;;;1.92;1.20;;;;;;;;;;6150056;28;20055;-81
2021/09/12 15:02:00;;;;;;;1.92;1.40;;;;;;;;;;6171927;28;20047;-79
2021/09/12 15:05:03;;;;;;;2.95;1.60;;;;;;;;;;6173725;28;20125;-80
2021/09/12 15:08:05;;;;;;;1.90;1.33;;;;;;;;;;6172710;28;20051;-79
2021/09/12 15:11:07;;;;;;;1.40;1.30;;;;;;;;;;6152243;28;20051;-80
2021/09/12 15:14:08;;;;;;;3.07;1.57;;;;;;;;;;6149843;28;20051;-81
2021/09/12 15:17:10;;;;;;;2.57;1.90;;;;;;;;;;6149571;28;20058;-81
2021/09/12 15:20:12;;;;;;;1.50;1.40;;;;;;;;;;6152595;28;20047;-80
2021/09/12 15:23:14;;;;;;;2.28;1.80;;;;;;;;;;6148373;28;20055;-80
2021/09/12 15:26:15;;;;;;;3.40;2.07;;;;;;;;;;6150396;28;20110;-81
2021/09/12 15:29:17;;;;;;;2.80;2.20;;;;;;;;;;6149870;28;20051;-79
2021/09/12 15:32:19;;;;;;;3.53;2.27;;;;;;;;;;6163134;28;20040;-81
2021/09/12 15:35:20;;;;;;;3.80;2.10;;;;;;;;;;6171169;28;20471;-80
2021/09/12 15:38:22;;;;;;;3.63;2.00;;;;;;;;;;6169532;28;20110;-81
2021/09/12 15:41:24;;;;;;;3.60;2.40;;;;;;;;;;6173068;28;20038;-80
2021/09/12 15:44:27;;;;;;;2.77;2.03;;;;;;;;;;6169502;28;20051;-81
2021/09/12 15:47:28;;;;;;;2.85;2.13;;;;;;;;;;6180471;28;20733;-79
2021/09/12 15:50:30;;;;;;;3.40;2.20;;;;;;;;;;6189333;28;20780;-80
2021/09/12 15:53:34;;;;;;;3.17;2.05;;;;;;;;;;6150428;28;20042;-81
2021/09/12 15:56:36;;;;;;;3.17;2.17;;;;;;;;;;6167446;28;20054;-79
2021/09/12 15:59:37;;;;;;;2.30;2.10;;;;;;;;;;6164938;28;20047;-79
2021/09/12 16:02:45;;;;;;;3.15;2.55;;;;;;;;;;6158945;28;20044;-79
2021/09/12 16:05:47;;;;;;;3.90;2.13;;;;;;;;;;6183022;28;20058;-79
2021/09/12 16:08:52;;;;;;;3.25;1.85;;;;;;;;;;6196019;28;20051;-79
2021/09/12 16:11:53;;;;;;;2.30;2.00;;;;;;;;;;6182375;28;20076;-78
2021/09/12 16:14:55;;;;;;;2.22;2.08;;;;;;;;;;6170751;28;20053;-80
2021/09/12 16:17:57;;;;;;;4.30;2.30;;;;;;;;;;6149423;28;20040;-79
2021/09/12 16:20:59;;;;;;;3.03;2.40;;;;;;;;;;6192405;28;20575;-79
2021/09/12 16:24:00;;;;;;;3.40;2.13;;;;;;;;;;6172168;28;20038;-79
2021/09/12 16:27:02;;;;;;;4.55;2.33;;;;;;;;;;6184956;28;20054;-78
2021/09/12 16:30:05;;;;;;;4.38;2.22;;;;;;;;;;6174064;28;20050;-79
2021/09/12 16:33:06;;;;;;;3.95;2.30;;;;;;;;;;6170145;28;20131;-79
2021/09/12 16:36:08;;;;;;;2.45;2.20;;;;;;;;;;6186499;28;20800;-82
2021/09/12 16:39:12;;;;;;;4.15;2.20;;;;;;;;;;6183663;28;20070;-82
2021/09/12 16:43:01;;;;;;;4.63;2.70;;;;;;;;;;6063257;28;20357;-81
2021/09/12 16:49:04;;;;;;;5.83;3.20;;;;;;;;;;6180625;28;20051;-79
2021/09/12 16:52:10;;;;;;;2.53;2.07;;;;;;;;;;6180871;28;20169;-80
2021/09/12 16:55:12;;;;;;;3.15;2.13;;;;;;;;;;6172542;28;20040;-80
2021/09/12 16:58:14;;;;;;;;;;;;;;;;;;6157464;28;20094;-80
2021/09/12 17:01:17;;;;;;;2.63;2.40;;;;;;;;;;6152468;28;19930;-80
2021/09/12 17:04:18;;;;;;;4.57;2.53;;;;;;;;;;6186784;28;20039;-81
2021/09/12 17:07:20;;;;;;;2.33;2.10;;;;;;;;;;6163173;28;20106;-80
2021/09/12 17:10:22;;;;;;;3.80;2.15;;;;;;;;;;6170731;28;20135;-79
2021/09/12 17:13:24;;;;;;;2.85;2.50;;;;;;;;;;6179285;28;20070;-79
2021/09/12 17:16:27;;;;;;;3.38;2.42;;;;;;;;;;6195142;28;20518;-81
2021/09/12 17:19:30;;;;;;;3.45;2.15;;;;;;;;;;6193620;28;20423;-81
2021/09/12 17:22:31;;;;;;;2.83;2.38;;;;;;;;;;6193386;28;20049;-81
2021/09/12 17:25:33;;;;;;;2.88;2.50;;;;;;;;;;6167233;28;20096;-81
2021/09/12 17:28:35;;;;;;;3.38;2.25;;;;;;;;;;6146231;28;20064;-80
2021/09/12 17:31:37;;;;;;;3.97;2.50;;;;;;;;;;6146113;28;20043;-82
2021/09/12 17:34:40;;;;;;;2.55;2.35;;;;;;;;;;6159908;28;20529;-82
2021/09/12 17:37:42;;;;;;;3.08;2.30;;;;;;;;;;6169522;28;21107;-81
2021/09/12 17:40:44;;;;;;;6.18;2.42;;;;;;;;;;6146852;28;20396;-82
2021/09/12 17:43:45;;;;;;;3.22;2.63;;;;;;;;;;6148151;28;20801;-81
2021/09/12 17:46:47;;;;;;;4.15;2.95;;;;;;;;;;6178771;28;20171;-79
2021/09/12 17:49:50;;;;;;;3.47;2.60;;;;;;;;;;6194092;28;20061;-80
2021/09/12 17:52:51;;;;;;;5.45;2.85;;;;;;;;;;6189034;28;20043;-82
2021/09/12 17:55:53;;;;;;;3.85;2.40;;;;;;;;;;6152031;28;20043;-80
2021/09/12 17:58:55;;;;;;;2.80;2.42;;;;;;;;;;6161552;28;20054;-81
2021/09/12 18:01:57;;;;;;;4.07;2.75;;;;;;;;;;6162322;28;20050;-81
2021/09/12 18:04:59;;;;;;;5.20;2.65;;;;;;;;;;6185920;28;20051;-79
2021/09/12 18:08:01;;;;;;;3.63;2.50;;;;;;;;;;6178327;28;20132;-80
2021/09/12 18:11:02;;;;;;;3.25;2.78;;;;;;;;;;6161362;28;20389;-81
2021/09/12 18:14:04;;;;;;;3.60;2.85;;;;;;;;;;6171480;28;20039;-81